Time;durP1;ratioP1;P1;durP2;ratioP2;P2;SDS_P1;SDS_P2;PMS_P1;PMS_P2;Temp;Humidity;BMP_temperature;BMP_pressure;BME280_temperature;BME280_humidity;BME280_pressure;Samples;Min_cycle;Max_cycle;Signal;HPM_P1;HPM_P2
2021/09/13 00:00:15;;;;;;;;;4.00;4.00;;;;;21.22;47.24;101226.34;5076462;28;45530;-71
2021/09/13 00:02:41;;;;;;;;;7.25;4.75;;;;;21.21;47.67;101229.88;5076210;28;45357;-71
2021/09/13 00:05:07;;;;;;;;;6.00;5.00;;;;;21.18;47.47;101232.56;5077126;27;45340;-71
2021/09/13 00:07:32;;;;;;;;;6.50;5.00;;;;;21.19;47.56;101226.38;5076082;27;45281;-71
2021/09/13 00:09:58;;;;;;;;;4.50;4.50;;;;;21.18;47.55;101227.25;5092997;27;45397;-72
2021/09/13 00:12:23;;;;;;;;;7.75;5.25;;;;;21.18;47.09;101225.50;5075499;28;58320;-71
2021/09/13 00:14:48;;;;;;;;;6.00;5.25;;;;;21.18;47.65;101224.63;5069174;28;56300;-71
2021/09/13 00:17:14;;;;;;;;;4.00;4.00;;;;;21.19;47.66;101231.66;5075457;28;46821;-71
2021/09/13 00:19:39;;;;;;;;;5.50;5.25;;;;;21.18;47.16;101225.50;5093197;27;45605;-71
2021/09/13 00:22:05;;;;;;;;;7.00;5.50;;;;;21.18;47.65;101225.50;5076859;27;45929;-71
2021/09/13 00:24:31;;;;;;;;;5.75;4.50;;;;;21.18;47.97;101220.22;5075338;28;45435;-71
2021/09/13 00:26:56;;;;;;;;;7.25;6.00;;;;;21.18;47.23;101220.22;5075789;28;45336;-71
2021/09/13 00:29:21;;;;;;;;;3.50;3.50;;;;;21.17;47.69;101218.47;5075207;28;50150;-71
2021/09/13 00:31:47;;;;;;;;;4.75;4.50;;;;;21.15;47.54;101214.94;5076565;27;54463;-71
2021/09/13 00:34:13;;;;;;;;;6.75;5.00;;;;;21.14;47.80;101209.69;5113180;27;45338;-71
2021/09/13 00:36:38;;;;;;;;;5.75;4.50;;;;;21.13;47.81;101200.00;5080518;28;45280;-71
2021/09/13 00:39:04;;;;;;;;;5.75;5.50;;;;;21.10;47.80;101200.94;5080622;28;45335;-71
2021/09/13 00:41:29;;;;;;;;;6.00;4.00;;;;;21.11;47.86;101201.81;5078899;28;46204;-71
2021/09/13 00:43:56;;;;;;;;;8.00;5.00;;;;;21.10;47.64;101203.59;5079113;28;45478;-71
2021/09/13 00:46:21;;;;;;;;;5.00;4.00;;;;;21.08;47.94;101200.06;5079838;28;45549;-71
2021/09/13 00:48:47;;;;;;;;;4.75;3.50;;;;;21.10;48.20;101194.75;5079947;27;45418;-71
2021/09/13 00:51:12;;;;;;;;;7.00;5.00;;;;;21.11;47.80;101193.88;5079540;28;51211;-71
2021/09/13 00:53:38;;;;;;;;;5.25;4.25;;;;;21.04;48.17;101184.28;5078569;28;60812;-71
2021/09/13 00:56:03;;;;;;;;;6.75;6.00;;;;;21.06;47.82;101193.94;5079466;28;47488;-71
2021/09/13 00:58:29;;;;;;;;;6.50;4.00;;;;;21.06;47.92;101187.75;5113598;27;45286;-71
2021/09/13 01:00:54;;;;;;;;;6.00;3.75;;;;;21.07;48.05;101187.75;5078708;28;45256;-71
2021/09/13 01:03:20;;;;;;;;;5.00;5.00;;;;;21.04;48.15;101184.28;5112848;27;45419;-71
2021/09/13 01:05:46;;;;;;;;;8.50;5.00;;;;;21.06;48.31;101198.34;5078286;28;46674;-71
2021/09/13 01:08:11;;;;;;;;;7.25;5.25;;;;;21.06;48.10;101193.94;5061656;28;45486;-71
2021/09/13 01:10:36;;;;;;;;;4.75;4.00;;;;;21.04;48.08;101189.56;5079459;27;49938;-71
2021/09/13 01:13:02;;;;;;;;;4.00;4.00;;;;;21.01;48.17;101195.75;5078565;28;45395;-71
2021/09/13 01:15:27;;;;;;;;;7.25;4.50;;;;;20.98;48.19;101188.75;5095049;27;51918;-71
2021/09/13 01:17:53;;;;;;;;;8.00;4.00;;;;;20.99;48.32;101198.41;5078718;28;45341;-71
2021/09/13 01:20:18;;;;;;;;;5.25;4.25;;;;;20.95;48.25;101191.41;5079073;27;55184;-71
2021/09/13 01:22:45;;;;;;;;;6.25;4.00;;;;;20.94;48.44;101189.66;5078544;28;45279;-71
2021/09/13 01:25:10;;;;;;;;;3.00;3.00;;;;;20.92;48.15;101196.72;5079531;27;45322;-71
2021/09/13 01:27:36;;;;;;;;;5.00;3.00;;;;;20.91;48.32;101200.28;5078698;28;45579;-71
2021/09/13 01:30:03;;;;;;;;;5.00;4.75;;;;;20.91;48.48;101195.00;5078173;28;45479;-71
2021/09/13 01:32:28;;;;;;;;;8.25;5.00;;;;;20.91;48.63;101188.81;5061437;28;45679;-71
2021/09/13 01:34:54;;;;;;;;;6.50;3.75;;;;;20.88;48.50;101188.84;5078328;28;51150;-71
2021/09/13 01:37:19;;;;;;;;;5.00;5.00;;;;;20.91;48.64;101181.78;5078837;27;45502;-71
2021/09/13 01:39:45;;;;;;;;;4.00;4.00;;;;;20.90;48.17;101187.94;5094755;27;59671;-71
2021/09/13 01:42:10;;;;;;;;;8.50;4.75;;;;;20.88;48.96;101173.88;5079123;27;55023;-71
2021/09/13 01:44:35;;;;;;;;;5.00;4.00;;;;;20.90;48.45;101182.66;5094703;27;47858;-71
2021/09/13 01:47:01;;;;;;;;;6.50;4.00;;;;;20.87;48.69;101174.78;5078823;27;45775;-71
2021/09/13 01:49:26;;;;;;;;;3.50;3.50;;;;;20.87;48.50;101173.88;5077189;28;57392;-71
2021/09/13 01:51:52;;;;;;;;;6.00;5.00;;;;;20.84;48.72;101169.50;5078231;27;59060;-71
2021/09/13 01:54:17;;;;;;;;;4.00;3.50;;;;;20.81;48.66;101182.75;5079371;27;45216;-71
2021/09/13 01:56:42;;;;;;;;;7.25;4.25;;;;;20.80;48.54;101192.47;5094230;27;45608;-72
2021/09/13 01:59:08;;;;;;;;;4.00;4.00;;;;;20.74;48.70;101184.59;5078108;28;45944;-71
2021/09/13 02:01:33;;;;;;;;;5.25;5.00;;;;;20.77;49.17;101186.34;5079175;27;45516;-71
2021/09/13 02:03:59;;;;;;;;;4.25;3.75;;;;;20.76;48.85;101184.56;5078839;27;53988;-71
2021/09/13 02:06:24;;;;;;;;;4.25;3.50;;;;;20.76;49.39;101187.22;5079225;27;45328;-71
2021/09/13 02:08:49;;;;;;;;;4.50;4.00;;;;;20.76;48.80;101192.50;5078773;28;46441;-71
2021/09/13 02:11:15;;;;;;;;;6.75;5.50;;;;;20.74;49.12;101184.59;5078329;27;53724;-72
2021/09/13 02:13:40;;;;;;;;;8.75;4.75;;;;;20.73;49.04;101187.25;5076831;28;54913;-71
2021/09/13 02:16:06;;;;;;;;;7.25;5.00;;;;;20.70;49.23;101184.66;5060618;28;50243;-71
2021/09/13 02:18:31;;;;;;;;;7.00;5.00;;;;;20.71;49.31;101186.41;5077016;28;46636;-71
2021/09/13 02:20:57;;;;;;;;;6.00;3.50;;;;;20.68;49.47;101177.63;5077574;28;45435;-71
2021/09/13 02:23:22;;;;;;;;;6.75;4.50;;;;;20.68;49.26;101176.75;5077414;28;50786;-72
2021/09/13 02:25:48;;;;;;;;;7.00;5.75;;;;;20.67;49.55;101182.88;5077775;28;45399;-71
2021/09/13 02:28:13;;;;;;;;;6.00;6.00;;;;;20.65;49.55;101182.03;5077694;28;54953;-71
2021/09/13 02:30:38;;;;;;;;;10.00;6.00;;;;;20.64;49.46;101180.28;5076694;28;62091;-71
2021/09/13 02:33:04;;;;;;;;;6.25;5.75;;;;;20.62;49.79;101180.31;5078577;28;45608;-71
2021/09/13 02:35:29;;;;;;;;;5.00;5.00;;;;;20.58;49.47;101175.94;5077477;28;45200;-71
2021/09/13 02:37:55;;;;;;;;;7.25;5.25;;;;;20.57;50.01;101184.75;5076840;28;47539;-72
2021/09/13 02:40:20;;;;;;;;;5.75;5.75;;;;;20.51;49.81;101172.47;5076974;28;50856;-71
2021/09/13 02:42:45;;;;;;;;;6.75;5.75;;;;;20.49;49.83;101174.25;5076860;28;51852;-71
2021/09/13 02:45:11;;;;;;;;;8.50;6.00;;;;;20.48;50.01;101180.44;5077464;28;45437;-72
2021/09/13 02:47:37;;;;;;;;;8.25;6.00;;;;;20.46;50.09;101174.28;5077166;28;46291;-71
2021/09/13 02:50:03;;;;;;;;;7.00;7.00;;;;;20.45;49.88;101174.31;5075893;28;60419;-71
2021/09/13 02:52:28;;;;;;;;;8.00;6.00;;;;;20.45;49.62;101184.88;5077212;28;45361;-71
2021/09/13 02:54:54;;;;;;;;;6.75;5.25;;;;;20.42;49.96;101176.97;5076687;28;45396;-71
2021/09/13 02:57:19;;;;;;;;;6.00;6.00;;;;;20.41;49.84;101180.50;5087150;27;60192;-71
2021/09/13 02:59:45;;;;;;;;;6.00;6.00;;;;;20.39;50.11;101174.34;5077859;27;45448;-72
2021/09/13 03:02:10;;;;;;;;;6.00;6.00;;;;;20.38;50.11;101177.91;5078204;27;45541;-71
2021/09/13 03:04:36;;;;;;;;;6.50;6.00;;;;;20.36;50.43;101175.28;5078480;27;45466;-71
2021/09/13 03:07:02;;;;;;;;;5.50;5.00;;;;;20.34;49.86;101172.63;5076667;28;53787;-71
2021/09/13 03:09:27;;;;;;;;;7.75;5.75;;;;;20.31;50.20;101162.09;5077557;27;45253;-71
2021/09/13 03:11:53;;;;;;;;;9.75;6.00;;;;;20.28;50.11;101156.00;5078081;27;45513;-72
2021/09/13 03:14:18;;;;;;;;;6.50;6.50;;;;;20.28;50.05;101159.50;5078424;27;45329;-71
2021/09/13 03:16:43;;;;;;;;;6.25;5.25;;;;;20.25;50.18;101163.91;5077800;27;57545;-71
2021/09/13 03:19:09;;;;;;;;;7.25;5.75;;;;;20.22;50.25;101162.19;5077287;27;50995;-71
2021/09/13 03:21:34;;;;;;;;;7.25;6.00;;;;;20.20;50.48;101165.75;5077834;27;46360;-71
2021/09/13 03:24:00;;;;;;;;;8.25;7.25;;;;;20.15;50.07;101152.56;5077853;27;45431;-72
2021/09/13 03:26:25;;;;;;;;;7.25;6.25;;;;;20.13;50.18;101154.38;5076035;28;59005;-72
2021/09/13 03:28:50;;;;;;;;;8.00;6.50;;;;;20.08;50.44;101157.03;5059327;28;45465;-72
2021/09/13 03:31:16;;;;;;;;;7.00;7.00;;;;;20.09;50.51;101156.16;5058996;28;48919;-72
2021/09/13 03:33:41;;;;;;;;;8.00;8.00;;;;;20.06;50.76;101157.94;5076438;28;46379;-72
2021/09/13 03:36:07;;;;;;;;;9.25;8.25;;;;;20.03;50.74;101157.97;5076644;28;46122;-71
2021/09/13 03:38:32;;;;;;;;;6.50;6.50;;;;;19.96;50.43;101155.38;5077867;27;45281;-72
2021/09/13 03:40:58;;;;;;;;;8.00;6.00;;;;;19.97;50.63;101153.59;5076126;28;45473;-72
2021/09/13 03:43:24;;;;;;;;;6.75;6.75;;;;;19.96;50.44;101160.66;5076667;28;45728;-72
2021/09/13 03:45:49;;;;;;;;;9.00;7.50;;;;;19.93;50.57;101151.88;5077507;27;46253;-72
2021/09/13 03:48:14;;;;;;;;;9.00;8.50;;;;;19.90;50.65;101158.06;5077470;27;45497;-72
2021/09/13 03:50:40;;;;;;;;;8.75;6.00;;;;;19.89;50.74;101158.06;5076039;28;45534;-72
2021/09/13 03:53:05;;;;;;;;;5.75;5.25;;;;;19.86;51.15;101152.81;5076990;27;45461;-71
2021/09/13 03:55:32;;;;;;;;;6.75;5.50;;;;;19.83;51.47;101157.22;5075982;28;48326;-71
2021/09/13 03:57:57;;;;;;;;;7.25;7.00;;;;;19.79;51.49;101146.69;5077307;28;45439;-72
2021/09/13 04:00:23;;;;;;;;;9.00;6.00;;;;;19.80;51.04;101157.25;5076812;28;50813;-71
2021/09/13 04:02:49;;;;;;;;;6.00;6.00;;;;;19.78;51.47;101150.19;5093358;27;45316;-72
2021/09/13 04:05:20;;;;;;;;;6.25;5.75;;;;;19.78;51.85;101152.84;5076126;28;46123;-72
2021/09/13 04:10:30;;;;;;;;;7.50;6.75;;;;;19.74;51.48;101152.00;5080410;28;45376;-72
2021/09/13 04:12:55;;;;;;;;;7.00;7.00;;;;;19.74;51.92;101148.47;5059610;28;45565;-72
2021/09/13 04:15:20;;;;;;;;;8.00;6.50;;;;;19.70;51.64;101142.38;5059803;28;64141;-72
2021/09/13 04:17:46;;;;;;;;;8.75;7.50;;;;;19.71;51.81;101144.09;5060330;28;49782;-72
2021/09/13 04:20:12;;;;;;;;;7.00;7.00;;;;;19.72;51.81;101150.25;5060337;28;48042;-72
2021/09/13 04:22:37;;;;;;;;;7.00;6.75;;;;;19.66;51.93;101141.50;5078183;27;45532;-72
2021/09/13 04:25:03;;;;;;;;;6.50;6.00;;;;;19.68;51.49;101144.13;5080397;27;45372;-72
2021/09/13 04:27:30;;;;;;;;;7.00;6.00;;;;;19.66;52.21;101136.22;5079196;28;45648;-71
2021/09/13 04:29:56;;;;;;;;;8.50;7.25;;;;;19.68;52.13;101138.84;5079559;28;45206;-72
2021/09/13 04:32:21;;;;;;;;;8.00;7.00;;;;;19.62;52.47;101129.22;5079383;28;45253;-72
2021/09/13 04:34:46;;;;;;;;;8.75;7.25;;;;;19.64;51.94;101135.34;5078709;28;45352;-72
2021/09/13 04:37:12;;;;;;;;;8.50;7.75;;;;;19.63;51.93;101138.88;5080078;27;48536;-72
2021/09/13 04:39:37;;;;;;;;;11.25;8.50;;;;;19.59;52.37;101138.91;5079555;28;45343;-72
2021/09/13 04:42:03;;;;;;;;;6.25;6.25;;;;;19.59;52.12;101136.25;5078988;28;48240;-72
2021/09/13 04:44:28;;;;;;;;;8.75;7.75;;;;;19.56;51.90;101142.44;5078872;28;50776;-72
2021/09/13 04:46:53;;;;;;;;;8.75;8.00;;;;;19.54;52.32;101132.81;5044767;28;53955;-72
2021/09/13 04:49:21;;;;;;;;;8.00;6.75;;;;;19.55;51.93;101143.34;5078823;28;51510;-72
2021/09/13 04:51:46;;;;;;;;;9.00;7.50;;;;;19.55;52.10;101142.44;5079584;28;45399;-72
2021/09/13 04:54:12;;;;;;;;;9.25;7.00;;;;;19.54;52.51;101135.44;5078490;28;45423;-72
2021/09/13 04:56:37;;;;;;;;;8.75;7.50;;;;;19.52;52.59;101135.44;5079437;28;51360;-72
2021/09/13 04:59:02;;;;;;;;;10.75;7.50;;;;;19.50;52.34;101130.16;5078030;28;45430;-71
2021/09/13 05:01:28;;;;;;;;;10.25;9.00;;;;;19.53;52.26;101139.81;5061169;28;51548;-72
2021/09/13 05:03:53;;;;;;;;;7.75;6.75;;;;;19.53;52.44;101142.47;5091624;27;47398;-72
2021/09/13 05:06:19;;;;;;;;;11.00;7.00;;;;;19.52;52.36;101138.06;5098084;27;45938;-72
2021/09/13 05:08:45;;;;;;;;;10.50;8.00;;;;;19.53;52.20;101131.03;5078675;28;45319;-72
2021/09/13 05:11:10;;;;;;;;;14.25;10.25;;;;;19.52;52.28;101135.44;5078940;28;45280;-72
2021/09/13 05:13:36;;;;;;;;;8.50;8.50;;;;;19.52;52.40;101130.16;5060902;28;56036;-72
2021/09/13 05:16:01;;;;;;;;;9.50;8.00;;;;;19.52;52.54;101131.94;5074787;28;49840;-72
2021/09/13 05:18:26;;;;;;;;;11.00;8.25;;;;;19.50;52.84;101130.16;5091698;27;46701;-72
2021/09/13 05:20:52;;;;;;;;;7.50;7.50;;;;;19.50;52.52;101127.53;5059847;28;45458;-72
2021/09/13 05:23:17;;;;;;;;;10.75;10.75;;;;;19.49;52.90;101124.91;5072938;28;47116;-72
2021/09/13 05:25:43;;;;;;;;;16.50;13.50;;;;;19.46;53.15;101123.16;5077175;28;45335;-72
2021/09/13 05:28:08;;;;;;;;;11.50;9.25;;;;;19.50;52.92;101132.81;5078992;27;45507;-72
2021/09/13 05:30:34;;;;;;;;;12.50;9.00;;;;;19.50;53.14;101131.94;5078194;28;45447;-72
2021/09/13 05:32:59;;;;;;;;;12.50;10.25;;;;;19.51;52.63;101128.44;5078287;28;46013;-72
2021/09/13 05:35:24;;;;;;;;;11.25;8.00;;;;;19.51;52.64;101128.44;5078883;27;48697;-72
2021/09/13 05:37:50;;;;;;;;;8.75;7.75;;;;;19.52;53.08;101127.50;5078855;27;45419;-72
2021/09/13 05:40:15;;;;;;;;;12.25;9.25;;;;;19.52;52.96;101132.78;5078233;28;48392;-72
2021/09/13 05:42:41;;;;;;;;;12.75;9.75;;;;;19.54;53.02;101130.16;5078432;28;58938;-71
2021/09/13 05:45:06;;;;;;;;;13.25;10.50;;;;;19.54;53.16;101127.53;5077952;28;45463;-72
2021/09/13 05:47:32;;;;;;;;;11.50;8.50;;;;;19.55;52.99;101132.78;5079076;27;45331;-72
2021/09/13 05:49:59;;;;;;;;;8.75;8.00;;;;;19.56;53.38;101125.75;5077953;28;45468;-72
2021/09/13 05:52:24;;;;;;;;;8.00;8.00;;;;;19.55;53.06;101119.59;5078625;27;46125;-72
2021/09/13 05:54:49;;;;;;;;;9.00;8.50;;;;;19.56;53.31;101118.69;5077947;28;45308;-70
2021/09/13 05:57:15;;;;;;;;;11.00;7.50;;;;;19.57;52.93;101127.50;5077565;28;45450;-70
2021/09/13 05:59:40;;;;;;;;;11.25;7.75;;;;;19.58;53.26;101126.63;5075349;28;45799;-71
2021/09/13 06:02:06;;;;;;;;;9.75;9.00;;;;;19.57;52.69;101124.88;5078328;27;62181;-73
2021/09/13 06:04:33;;;;;;;;;11.50;10.00;;;;;19.59;53.38;101128.34;5078947;27;45331;-72
2021/09/13 06:06:58;;;;;;;;;10.50;9.00;;;;;19.57;53.05;101128.38;5078854;27;45496;-70
2021/09/13 06:09:24;;;;;;;;;11.25;11.25;;;;;19.58;53.19;101127.50;5078281;27;45398;-70
2021/09/13 06:11:49;;;;;;;;;9.00;9.00;;;;;19.60;53.52;101132.75;5076025;28;55289;-72
2021/09/13 06:14:16;;;;;;;;;10.25;10.25;;;;;19.61;53.17;101127.47;5076285;28;48956;-72
2021/09/13 06:16:42;;;;;;;;;13.50;12.00;;;;;19.62;53.20;101133.63;5078440;28;45359;-71
2021/09/13 06:19:09;;;;;;;;;9.00;9.00;;;;;19.64;53.64;101129.19;5077927;27;45453;-69
2021/09/13 06:21:34;;;;;;;;;13.00;10.50;;;;;19.66;53.23;101125.66;5089808;27;47943;-68
2021/09/13 06:23:59;;;;;;;;;15.00;9.50;;;;;19.68;53.43;101130.94;5071165;28;45492;-67
2021/09/13 06:26:25;;;;;;;;;12.75;8.75;;;;;19.70;53.04;101139.72;5077764;28;49046;-70
2021/09/13 06:28:50;;;;;;;;;13.00;12.50;;;;;19.72;53.04;101134.44;5077980;28;45356;-69
2021/09/13 06:31:16;;;;;;;;;10.25;10.25;;;;;19.78;53.27;101137.00;5076663;27;51527;-68
2021/09/13 06:33:41;;;;;;;;;15.00;11.25;;;;;19.80;53.26;101135.28;5076779;28;55480;-68
2021/09/13 06:36:06;;;;;;;;;12.00;10.50;;;;;19.83;52.88;101136.13;5076247;27;45580;-69
2021/09/13 06:38:32;;;;;;;;;12.50;11.00;;;;;19.87;53.05;101134.34;5077526;28;45452;-68
2021/09/13 06:40:59;;;;;;;;;12.75;9.50;;;;;19.87;53.15;101136.97;5077548;28;45929;-69
2021/09/13 06:43:27;;;;;;;;;14.25;11.25;;;;;19.86;52.76;101129.94;5077815;28;45395;-69
2021/09/13 06:45:58;;;;;;;;;12.75;11.25;;;;;19.94;52.87;101153.66;5060084;28;45381;-69
2021/09/13 06:48:24;;;;;;;;;13.75;11.50;;;;;19.99;53.06;101150.06;5078131;27;45426;-67
2021/09/13 06:50:49;;;;;;;;;20.50;13.50;;;;;20.05;52.94;101157.06;5077267;27;46202;-67
2021/09/13 06:53:14;;;;;;;;;15.25;11.75;;;;;20.10;53.05;101154.38;5076400;28;45871;-67
2021/09/13 06:55:40;;;;;;;;;13.00;12.00;;;;;20.14;52.65;101158.72;5077210;27;55100;-67
2021/09/13 06:58:06;;;;;;;;;12.75;11.50;;;;;20.16;52.48;101156.97;5077799;28;45292;-69
2021/09/13 07:00:31;;;;;;;;;15.00;11.75;;;;;20.19;52.75;101154.28;5076078;28;47030;-69
2021/09/13 07:02:57;;;;;;;;;14.50;14.00;;;;;20.19;52.36;101146.38;5077617;27;45476;-69
2021/09/13 07:05:22;;;;;;;;;16.25;14.75;;;;;20.24;52.57;101147.22;5076186;28;45471;-69
2021/09/13 07:07:48;;;;;;;;;16.75;14.00;;;;;20.33;52.47;101155.06;5077637;28;45395;-68
2021/09/13 07:10:16;;;;;;;;;16.50;13.25;;;;;20.42;52.70;101154.09;5076026;28;46045;-69
2021/09/13 07:12:42;;;;;;;;;14.00;12.50;;;;;20.53;52.18;101151.34;5077566;28;45371;-69
2021/09/13 07:15:08;;;;;;;;;17.50;13.50;;;;;20.60;52.29;101150.38;5076848;28;51336;-69
2021/09/13 07:17:33;;;;;;;;;15.50;14.00;;;;;20.57;52.34;101118.72;5077793;28;45398;-69
2021/09/13 07:19:59;;;;;;;;;19.00;12.50;;;;;20.87;52.14;101142.19;5075759;28;51858;-68
2021/09/13 07:22:24;;;;;;;;;15.25;13.50;;;;;20.99;51.88;101145.56;5075488;28;51580;-69
2021/09/13 07:24:50;;;;;;;;;13.50;13.25;;;;;21.06;51.32;101129.63;5077432;28;45398;-67
2021/09/13 07:27:15;;;;;;;;;17.25;13.00;;;;;21.29;51.15;101135.47;5077247;28;45431;-68
2021/09/13 07:29:40;;;;;;;;;18.25;14.25;;;;;21.49;50.59;101136.97;5075335;28;54241;-67
2021/09/13 07:32:15;;;;;;;;;16.00;15.25;;;;;21.84;50.72;101146.16;5075234;28;58517;-67
2021/09/13 07:34:40;;;;;;;;;16.00;15.25;;;;;22.36;50.04;101131.19;5077242;28;45865;-67
2021/09/13 07:37:05;;;;;;;;;17.00;14.50;;;;;23.27;49.25;101145.25;5072734;27;45898;-68
2021/09/13 07:39:31;;;;;;;;;16.00;14.50;;;;;24.22;48.20;101134.16;5055062;28;65181;-67
2021/09/13 07:41:56;;;;;;;;;21.50;15.25;;;;;25.03;46.68;101140.81;5074840;27;57718;-69
2021/09/13 07:44:22;;;;;;;;;21.75;16.00;;;;;25.80;45.42;101139.34;5092597;27;45420;-70
2021/09/13 07:46:47;;;;;;;;;16.75;13.50;;;;;26.27;44.00;101131.56;5077114;27;45423;-70
2021/09/13 07:49:13;;;;;;;;;15.75;15.00;;;;;26.58;43.14;101128.69;5076959;27;46097;-71
2021/09/13 07:51:38;;;;;;;;;15.25;12.75;;;;;27.07;42.93;101135.78;5071646;28;46071;-71
2021/09/13 07:54:06;;;;;;;;;14.25;12.00;;;;;27.74;41.74;101140.25;5075548;27;45719;-71
2021/09/13 07:56:31;;;;;;;;;20.50;16.75;;;;;28.59;40.30;101138.44;5075894;28;45422;-72
2021/09/13 07:58:57;;;;;;;;;16.25;15.00;;;;;29.26;39.18;101136.31;5074133;28;45505;-73
2021/09/13 08:01:22;;;;;;;;;13.00;13.00;;;;;29.73;38.96;101130.44;5076422;28;45260;-71
2021/09/13 08:03:47;;;;;;;;;15.00;10.75;;;;;30.07;36.16;101130.56;5073756;28;51690;-71
2021/09/13 08:06:13;;;;;;;;;11.75;9.75;;;;;29.94;36.31;101127.66;5075435;28;45178;-72
2021/09/13 08:08:38;;;;;;;;;11.50;11.00;;;;;30.06;36.89;101129.72;5075284;28;45331;-71
2021/09/13 08:11:04;;;;;;;;;11.00;9.75;;;;;30.26;36.15;101125.13;5073498;28;59027;-72
2021/09/13 08:13:30;;;;;;;;;14.75;12.25;;;;;30.50;34.59;101116.75;5057677;28;45485;-72
2021/09/13 08:15:55;;;;;;;;;15.50;13.75;;;;;30.43;34.82;101118.84;5076849;28;45404;-72
2021/09/13 08:18:21;;;;;;;;;17.25;14.00;;;;;30.50;34.37;101119.41;5076747;28;45343;-72
2021/09/13 08:20:46;;;;;;;;;15.25;12.25;;;;;30.69;35.44;101112.09;5058567;28;45406;-72
2021/09/13 08:23:11;;;;;;;;;15.00;13.00;;;;;30.89;34.27;101123.59;5058648;28;45726;-72
2021/09/13 08:25:37;;;;;;;;;14.75;14.00;;;;;30.99;33.90;101124.78;5077090;28;45439;-72
2021/09/13 08:28:02;;;;;;;;;13.25;11.00;;;;;31.20;33.88;101121.88;5076056;28;54313;-72
2021/09/13 08:30:28;;;;;;;;;15.00;12.00;;;;;31.34;33.66;101121.97;5075946;28;45378;-72
2021/09/13 08:32:53;;;;;;;;;12.50;8.50;;;;;31.59;33.64;101124.13;5074908;28;45786;-72
2021/09/13 08:35:19;;;;;;;;;10.25;7.75;;;;;31.69;31.77;101112.84;5075679;28;45357;-72
2021/09/13 08:37:44;;;;;;;;;9.25;7.00;;;;;31.49;32.90;101122.91;5075248;28;53444;-72
2021/09/13 08:40:10;;;;;;;;;11.75;7.00;;;;;30.87;32.53;101101.31;5058327;28;45881;-72
2021/09/13 08:42:46;;;;;;;;;7.75;7.00;;;;;30.15;32.81;101112.28;5075262;28;45375;-72
2021/09/13 08:45:14;;;;;;;;;11.50;7.75;;;;;29.43;33.86;101112.28;5076967;27;45285;-72
2021/09/13 08:47:52;;;;;;;;;8.00;7.50;;;;;28.81;34.26;101108.06;5075196;28;46179;-72
2021/09/13 08:50:35;;;;;;;;;7.50;5.75;;;;;28.25;34.99;101111.41;5059856;28;45478;-72
2021/09/13 08:53:01;;;;;;;;;7.75;5.00;;;;;27.75;35.01;101122.41;5077219;28;45383;-72
2021/09/13 08:55:27;;;;;;;;;2.00;1.00;;;;;27.37;36.53;101120.41;5079246;28;45538;-72
2021/09/13 08:57:52;;;;;;;;;13.25;8.75;;;;;27.00;36.21;101128.97;5112702;27;45338;-72
2021/09/13 09:00:18;;;;;;;;;11.75;7.25;;;;;26.70;37.44;101129.19;5078661;28;45494;-72
2021/09/13 09:02:44;;;;;;;;;7.00;6.00;;;;;26.45;38.14;101142.47;5079947;27;45379;-72
2021/09/13 09:05:10;;;;;;;;;7.00;7.00;;;;;26.23;38.39;101140.59;5078601;27;45292;-72
2021/09/13 09:07:51;;;;;;;;;8.50;6.00;;;;;26.05;38.29;101142.97;5079896;27;45320;-71
2021/09/13 09:10:18;;;;;;;;;8.00;7.00;;;;;25.77;39.00;101142.97;5079561;27;45602;-72
2021/09/13 09:13:15;;;;;;;;;8.00;8.00;;;;;25.58;39.71;101142.69;5078580;28;45338;-71
2021/09/13 09:15:57;;;;;;;;;9.50;7.25;;;;;25.48;40.30;101142.13;5078223;28;45214;-72
2021/09/13 09:18:24;;;;;;;;;6.50;6.25;;;;;25.39;40.31;101137.97;5079594;27;47366;-71
2021/09/13 09:20:49;;;;;;;;;10.75;7.75;;;;;25.27;40.41;101133.00;5078347;28;45579;-72
2021/09/13 09:23:15;;;;;;;;;10.50;6.00;;;;;25.11;40.07;101121.94;5078879;27;55354;-72
2021/09/13 09:25:41;;;;;;;;;2.00;1.00;;;;;25.02;40.93;101120.44;5079890;27;45422;-71
2021/09/13 09:28:11;;;;;;;;;10.50;6.50;;;;;25.02;41.27;101122.25;5077941;28;45558;-72
2021/09/13 09:30:46;;;;;;;;;11.75;6.50;;;;;24.94;40.92;101111.81;5061288;28;45412;-72
2021/09/13 09:33:19;;;;;;;;;6.50;6.50;;;;;24.91;41.44;101127.88;5078205;28;45438;-72
2021/09/13 09:35:54;;;;;;;;;9.50;8.00;;;;;24.77;41.11;101111.44;5044610;28;45302;-72
2021/09/13 09:38:35;;;;;;;;;9.00;6.00;;;;;24.82;41.62;101122.81;5079251;27;46363;-72
2021/09/13 09:41:06;;;;;;;;;8.00;5.25;;;;;24.77;41.91;101122.97;5078016;28;45309;-71
2021/09/13 09:43:46;;;;;;;;;6.50;6.00;;;;;24.70;41.96;101113.41;5079087;27;45497;-71
2021/09/13 09:46:12;;;;;;;;;7.00;6.00;;;;;24.66;42.04;101104.66;5075697;27;45436;-71
2021/09/13 09:48:37;;;;;;;;;6.50;6.00;;;;;24.73;42.11;101121.31;5060214;28;47850;-71
2021/09/13 09:51:23;;;;;;;;;6.00;5.25;;;;;24.66;41.52;101117.06;5111275;27;45379;-72
2021/09/13 09:53:48;;;;;;;;;6.50;6.25;;;;;24.60;42.00;101114.56;5078036;28;45313;-72
2021/09/13 09:56:14;;;;;;;;;5.50;4.75;;;;;24.56;41.70;101098.72;5077907;28;45246;-72
2021/09/13 09:59:02;;;;;;;;;7.25;5.75;;;;;24.64;42.36;101102.97;5078718;28;45454;-70
2021/09/13 10:01:40;;;;;;;;;5.50;5.50;;;;;24.58;42.25;101092.47;5076675;28;45516;-69
2021/09/13 10:04:13;;;;;;;;;8.75;7.25;;;;;24.53;42.64;101097.91;5111530;27;45319;-69
2021/09/13 10:06:40;;;;;;;;;6.00;6.00;;;;;24.46;42.44;101080.41;5078945;27;45388;-69
2021/09/13 10:09:05;;;;;;;;;8.25;6.50;;;;;24.47;42.33;101082.13;5060632;28;46443;-72
2021/09/13 10:11:31;;;;;;;;;5.00;5.00;;;;;24.49;42.95;101075.88;5077369;28;45341;-71
2021/09/13 10:13:56;;;;;;;;;7.00;5.75;;;;;24.50;42.71;101064.31;5077268;28;50874;-69
2021/09/13 10:16:21;;;;;;;;;8.50;5.50;;;;;24.52;42.01;101073.13;5077252;28;45300;-71
2021/09/13 10:18:47;;;;;;;;;6.00;4.00;;;;;24.50;42.95;101066.13;5076768;28;58196;-70
2021/09/13 10:21:13;;;;;;;;;6.00;5.00;;;;;24.50;42.58;101069.63;5077328;28;45346;-70
2021/09/13 10:23:38;;;;;;;;;6.00;6.00;;;;;24.52;43.14;101061.63;5076928;28;48573;-70
2021/09/13 10:26:04;;;;;;;;;7.25;5.75;;;;;24.53;42.94;101063.38;5060853;28;45397;-70
2021/09/13 10:28:31;;;;;;;;;3.75;3.75;;;;;24.54;42.77;101065.97;5060074;28;46412;-70
2021/09/13 10:30:56;;;;;;;;;4.25;4.00;;;;;24.54;42.46;101067.78;5076966;28;45471;-70
2021/09/13 10:33:22;;;;;;;;;5.00;5.00;;;;;24.52;43.22;101058.97;5078306;27;45564;-71
2021/09/13 10:35:56;;;;;;;;;4.75;4.50;;;;;24.58;43.17;101056.16;5076255;28;45465;-70
2021/09/13 10:38:40;;;;;;;;;7.00;6.00;;;;;24.59;42.62;101049.88;5076907;27;45845;-70
2021/09/13 10:41:05;;;;;;;;;5.50;4.00;;;;;24.61;43.13;101050.75;5076411;28;45524;-71
2021/09/13 10:43:31;;;;;;;;;5.75;5.50;;;;;24.64;42.15;101053.31;5077880;28;49326;-70
2021/09/13 10:45:56;;;;;;;;;7.00;5.75;;;;;24.64;42.66;101052.47;5076971;28;45413;-70
2021/09/13 10:48:22;;;;;;;;;10.75;7.50;;;;;24.67;42.64;101049.72;5076603;28;53640;-70
2021/09/13 10:50:51;;;;;;;;;5.25;5.25;;;;;24.64;42.54;101042.69;5076456;28;45377;-70
2021/09/13 10:53:17;;;;;;;;;5.00;4.00;;;;;24.72;42.78;101040.69;5078096;27;45268;-70
2021/09/13 10:55:43;;;;;;;;;4.75;4.25;;;;;24.76;42.64;101037.91;5078394;27;45486;-70
2021/09/13 10:58:16;;;;;;;;;4.50;4.00;;;;;24.82;42.90;101037.75;5077713;28;46090;-70
2021/09/13 11:00:42;;;;;;;;;5.50;4.00;;;;;24.84;42.78;101033.25;5076654;28;45271;-70
2021/09/13 11:03:22;;;;;;;;;4.75;4.75;;;;;24.85;42.82;101037.66;5077815;28;45224;-70
2021/09/13 11:08:59;;;;;;;;;5.75;4.00;;;;;24.84;42.44;101027.91;5076431;27;46173;-70
2021/09/13 11:11:26;;;;;;;;;5.50;5.25;;;;;24.86;42.51;101032.28;5076487;28;45292;-70
2021/09/13 11:14:10;;;;;;;;;5.00;4.50;;;;;24.90;42.58;101027.75;5077831;28;45407;-70
2021/09/13 11:16:47;;;;;;;;;6.75;5.75;;;;;24.89;42.21;101018.91;5075814;28;45392;-71
2021/09/13 11:19:16;;;;;;;;;4.00;4.00;;;;;24.90;42.75;101007.34;5061063;28;45850;-71
2021/09/13 11:21:46;;;;;;;;;8.75;6.00;;;;;24.96;42.42;101016.91;5076387;28;45513;-70
2021/09/13 11:24:16;;;;;;;;;6.25;6.25;;;;;24.99;42.34;101010.63;5077141;28;45358;-72